createdAt,value
2019-04-30T00:02:34.354Z,99.90
2019-04-30T00:04:59.388Z,99.90
2019-04-30T00:07:30.540Z,99.90
2019-04-30T00:10:01.209Z,99.90
2019-04-30T00:12:38.023Z,99.90
2019-04-30T00:15:06.194Z,99.90
2019-04-30T00:17:36.816Z,99.90
2019-04-30T00:20:07.427Z,99.90
2019-04-30T00:22:39.242Z,99.90
2019-04-30T00:25:10.478Z,99.90
2019-04-30T00:27:40.941Z,99.90
2019-04-30T00:30:11.460Z,99.90
2019-04-30T00:32:43.715Z,99.90
2019-04-30T00:35:16.158Z,99.90
2019-04-30T00:37:51.698Z,99.90
2019-04-30T00:40:21.710Z,99.90
2019-04-30T00:42:52.925Z,99.90
2019-04-30T00:45:25.111Z,99.90
2019-04-30T00:47:55.954Z,99.90
2019-04-30T00:50:29.057Z,99.90
2019-04-30T00:52:58.777Z,99.90
2019-04-30T00:55:29.355Z,99.90
2019-04-30T00:57:59.883Z,99.90
2019-04-30T01:00:32.620Z,99.90
2019-04-30T01:03:09.388Z,99.90
2019-04-30T01:05:45.603Z,99.90
2019-04-30T01:08:12.084Z,99.90
2019-04-30T01:10:42.461Z,99.90
2019-04-30T01:13:14.298Z,99.90
2019-04-30T01:15:49.025Z,99.90
2019-04-30T01:18:16.912Z,99.90
2019-04-30T01:20:48.766Z,99.90
2019-04-30T01:23:19.592Z,99.90
2019-04-30T01:25:51.416Z,99.90
2019-04-30T01:28:24.252Z,99.90
2019-04-30T01:30:58.689Z,99.90
2019-04-30T01:33:28.426Z,99.90
2019-04-30T01:35:59.694Z,99.90
2019-04-30T01:38:31.220Z,99.90
2019-04-30T01:41:01.567Z,99.90
2019-04-30T01:43:34.620Z,99.90
2019-04-30T01:46:12.153Z,99.90
2019-04-30T01:48:36.762Z,99.90
2019-04-30T01:51:08.995Z,99.90
2019-04-30T01:53:43.648Z,99.90
2019-04-30T01:56:29.157Z,99.90
2019-04-30T01:59:04.335Z,99.90
2019-04-30T02:01:39.180Z,99.90
2019-04-30T02:04:09.874Z,99.90
2019-04-30T02:06:40.492Z,99.90
2019-04-30T02:09:11.020Z,99.90
2019-04-30T02:11:41.375Z,99.90
2019-04-30T02:14:11.927Z,99.90
2019-04-30T02:16:42.345Z,99.90
2019-04-30T02:19:12.873Z,99.90
2019-04-30T02:21:43.444Z,99.90
2019-04-30T02:24:14.048Z,99.90
2019-04-30T02:26:44.589Z,99.90
2019-04-30T02:29:15.159Z,99.90
2019-04-30T02:31:45.550Z,99.90
2019-04-30T02:34:23.464Z,99.90
2019-04-30T02:36:55.698Z,99.90
2019-04-30T02:39:26.103Z,99.90
2019-04-30T02:41:59.757Z,99.90
2019-04-30T02:44:30.922Z,99.90
2019-04-30T02:47:02.432Z,99.90
2019-04-30T02:49:34.860Z,99.90
2019-04-30T02:52:09.102Z,99.90
2019-04-30T02:54:44.235Z,99.90
2019-04-30T02:57:15.264Z,99.90
2019-04-30T03:00:03.140Z,99.90
2019-04-30T03:02:33.596Z,99.90
2019-04-30T03:05:06.881Z,99.90
2019-04-30T03:07:37.332Z,99.90
2019-04-30T03:10:10.125Z,99.90
2019-04-30T03:12:40.710Z,99.90
2019-04-30T03:15:22.351Z,99.90
2019-04-30T03:18:00.720Z,99.90
2019-04-30T03:20:49.875Z,99.90
2019-04-30T03:23:20.679Z,99.90
2019-04-30T03:25:53.975Z,99.90
2019-04-30T03:28:24.682Z,99.90
2019-04-30T03:30:57.625Z,99.90
2019-04-30T03:33:32.598Z,99.90
2019-04-30T03:36:02.827Z,99.90
2019-04-30T03:38:33.630Z,99.90
2019-04-30T03:41:04.131Z,99.90
2019-04-30T03:43:34.741Z,99.90
2019-04-30T03:46:05.147Z,99.90
2019-04-30T03:48:35.609Z,99.90
2019-04-30T03:51:06.435Z,99.90
2019-04-30T03:53:39.729Z,99.90
2019-04-30T03:56:09.469Z,99.90
2019-04-30T03:58:40.064Z,99.90
2019-04-30T04:01:19.646Z,99.90
2019-04-30T04:04:10.506Z,99.90
2019-04-30T04:06:45.763Z,99.90
2019-04-30T04:09:22.451Z,99.90
2019-04-30T04:12:04.945Z,99.90
2019-04-30T04:14:39.437Z,99.90
2019-04-30T04:17:10.029Z,99.90
2019-04-30T04:19:41.432Z,99.90
2019-04-30T04:22:12.263Z,99.90
2019-04-30T04:24:43.121Z,99.90
2019-04-30T04:27:15.051Z,99.90
2019-04-30T04:29:45.690Z,99.90
2019-04-30T04:32:16.165Z,99.90
2019-04-30T04:34:46.590Z,99.90
2019-04-30T04:37:19.163Z,99.90
2019-04-30T04:39:50.248Z,99.90
2019-04-30T04:42:21.179Z,99.90
2019-04-30T04:44:51.535Z,99.90
2019-04-30T04:47:23.637Z,99.60
2019-04-30T04:49:54.215Z,99.90
2019-04-30T04:52:24.786Z,99.90
2019-04-30T04:54:55.199Z,99.90
2019-04-30T04:57:25.598Z,99.90
2019-04-30T04:59:55.933Z,99.90
2019-04-30T05:02:32.670Z,99.60
2019-04-30T05:05:04.659Z,99.20
2019-04-30T05:07:37.390Z,98.60
2019-04-30T05:10:09.201Z,97.30
2019-04-30T05:12:43.015Z,97.60
2019-04-30T05:15:13.899Z,96.80
2019-04-30T05:17:44.373Z,94.60
2019-04-30T05:20:15.146Z,93.30
2019-04-30T05:22:49.254Z,92.20
2019-04-30T05:25:19.818Z,90.80
2019-04-30T05:27:51.803Z,91.30
2019-04-30T05:30:22.274Z,90.80
2019-04-30T05:32:54.323Z,92.50
2019-04-30T05:35:24.758Z,93.30
2019-04-30T05:37:59.825Z,93.00
2019-04-30T05:40:51.828Z,91.70
2019-04-30T05:43:25.036Z,93.20
2019-04-30T05:45:58.663Z,96.40
2019-04-30T05:48:29.259Z,97.40
2019-04-30T05:50:59.569Z,99.00
2019-04-30T05:53:30.036Z,99.90
2019-04-30T05:56:03.348Z,99.90
2019-04-30T05:58:34.514Z,99.90
2019-04-30T06:01:09.697Z,99.90
2019-04-30T06:03:42.891Z,99.90
2019-04-30T06:06:16.776Z,99.90
2019-04-30T06:09:06.610Z,99.90
2019-04-30T06:11:53.792Z,99.90
2019-04-30T06:14:31.386Z,99.90
2019-04-30T06:17:21.349Z,99.90
2019-04-30T06:19:53.655Z,99.90
2019-04-30T06:22:26.536Z,99.90
2019-04-30T06:24:59.462Z,99.90
2019-04-30T06:27:34.445Z,98.40
2019-04-30T06:30:05.995Z,94.40
2019-04-30T06:32:39.500Z,93.70
2019-04-30T06:35:11.874Z,94.50
2019-04-30T06:37:48.857Z,94.00
2019-04-30T06:40:22.018Z,93.00
2019-04-30T06:42:54.511Z,94.20
2019-04-30T06:45:25.761Z,94.10
2019-04-30T06:48:02.845Z,92.70
2019-04-30T06:50:33.597Z,91.60
2019-04-30T06:53:04.045Z,90.80
2019-04-30T06:55:34.490Z,92.60
2019-04-30T06:58:14.817Z,93.70
2019-04-30T07:00:39.945Z,94.90
2019-04-30T07:03:14.205Z,96.00
2019-04-30T07:05:44.912Z,96.80
2019-04-30T07:08:37.263Z,97.50
2019-04-30T07:11:08.614Z,97.50
2019-04-30T07:13:39.524Z,97.30
2019-04-30T07:16:11.551Z,97.70
2019-04-30T07:18:48.930Z,98.20
2019-04-30T07:21:19.988Z,97.30
2019-04-30T07:23:51.403Z,97.60
2019-04-30T07:26:24.772Z,97.70
2019-04-30T07:28:55.702Z,96.80
2019-04-30T07:31:29.409Z,96.20
2019-04-30T07:34:02.364Z,96.10
2019-04-30T07:36:45.288Z,96.70
2019-04-30T07:39:09.830Z,96.70
2019-04-30T07:41:40.277Z,97.00
2019-04-30T07:44:16.678Z,97.30
2019-04-30T07:46:45.207Z,96.70
2019-04-30T07:49:15.067Z,96.80
2019-04-30T07:51:46.156Z,96.50
2019-04-30T07:54:18.896Z,96.20
2019-04-30T07:56:50.705Z,95.80
2019-04-30T07:59:21.166Z,95.20
2019-04-30T08:02:04.019Z,94.70
2019-04-30T08:04:29.262Z,94.60
2019-04-30T08:07:01.777Z,94.30
2019-04-30T08:09:39.195Z,93.40
2019-04-30T08:12:09.060Z,93.70
2019-04-30T08:14:39.189Z,93.80
2019-04-30T08:17:09.777Z,94.10
2019-04-30T08:19:41.103Z,93.00
2019-04-30T08:22:11.739Z,93.30
2019-04-30T08:24:42.199Z,93.50
2019-04-30T08:27:12.665Z,93.70
2019-04-30T08:29:43.210Z,93.60
2019-04-30T08:32:15.209Z,93.10
2019-04-30T08:34:45.716Z,92.90
2019-04-30T08:37:18.173Z,92.90
2019-04-30T08:39:49.707Z,93.00
2019-04-30T08:42:30.929Z,92.90
2019-04-30T08:44:52.566Z,93.00
2019-04-30T08:47:23.129Z,92.40
2019-04-30T08:49:53.604Z,92.50
2019-04-30T08:52:24.074Z,92.20
2019-04-30T08:54:54.411Z,92.30
2019-04-30T08:57:26.576Z,92.20
2019-04-30T08:59:58.629Z,91.70
2019-04-30T09:02:29.376Z,91.20
2019-04-30T09:05:09.333Z,90.90
2019-04-30T09:07:42.647Z,91.40
2019-04-30T09:10:14.207Z,91.40
2019-04-30T09:12:47.229Z,90.50
2019-04-30T09:15:18.834Z,90.40
2019-04-30T09:18:00.751Z,90.60
2019-04-30T09:20:22.143Z,90.50
2019-04-30T09:22:52.730Z,90.70
2019-04-30T09:25:23.107Z,89.20
2019-04-30T09:27:53.840Z,89.20
2019-04-30T09:30:24.485Z,87.40
2019-04-30T09:32:55.223Z,87.60
2019-04-30T09:35:25.709Z,87.30
2019-04-30T09:38:01.892Z,87.00
2019-04-30T09:40:32.269Z,84.50
2019-04-30T09:43:03.397Z,82.50
2019-04-30T09:45:33.919Z,82.60
2019-04-30T09:48:04.820Z,83.00
2019-04-30T09:50:39.198Z,81.80
2019-04-30T09:53:10.275Z,80.50
2019-04-30T09:55:42.688Z,76.60
2019-04-30T09:58:17.019Z,78.60
2019-04-30T10:00:45.353Z,79.80
2019-04-30T10:03:16.464Z,79.60
2019-04-30T10:05:49.128Z,81.80
2019-04-30T10:08:21.000Z,87.20
2019-04-30T10:11:09.991Z,89.70
2019-04-30T10:13:40.525Z,91.50
2019-04-30T10:16:33.323Z,92.40
2019-04-30T10:19:03.888Z,92.40
2019-04-30T10:21:34.284Z,93.50
2019-04-30T10:24:13.086Z,93.70
2019-04-30T10:26:40.409Z,93.50
2019-04-30T10:29:11.264Z,93.30
2019-04-30T10:31:41.679Z,93.10
2019-04-30T10:34:12.115Z,92.00
2019-04-30T10:36:44.945Z,92.90
2019-04-30T10:39:15.431Z,92.90
2019-04-30T10:41:45.770Z,92.80
2019-04-30T10:44:18.812Z,92.00
2019-04-30T10:53:19.454Z,89.90
2019-04-30T10:55:51.287Z,89.20
2019-04-30T10:58:21.755Z,89.40
2019-04-30T11:00:52.075Z,88.50
2019-04-30T11:03:23.200Z,89.50
2019-04-30T11:05:54.335Z,88.80
2019-04-30T11:08:25.743Z,90.00
2019-04-30T11:10:56.300Z,91.20
2019-04-30T11:13:26.782Z,92.00
2019-04-30T11:16:12.164Z,92.70
2019-04-30T11:18:32.859Z,92.60
2019-04-30T11:21:03.395Z,91.70
2019-04-30T11:23:34.334Z,91.10
2019-04-30T11:26:07.316Z,90.70
2019-04-30T11:28:37.100Z,90.80
2019-04-30T11:31:26.473Z,91.80
2019-04-30T11:34:01.762Z,92.10
2019-04-30T11:36:32.338Z,92.40
2019-04-30T11:39:02.890Z,92.80
2019-04-30T11:41:33.429Z,92.40
2019-04-30T11:44:03.822Z,92.10
2019-04-30T11:46:51.539Z,92.10
2019-04-30T11:49:23.559Z,91.30
2019-04-30T11:51:53.952Z,91.20
2019-04-30T11:54:24.414Z,91.50
2019-04-30T11:56:54.824Z,91.50
2019-04-30T11:59:25.426Z,91.50
2019-04-30T12:01:57.415Z,91.80
2019-04-30T12:04:29.705Z,92.00
2019-04-30T12:07:01.563Z,91.60
2019-04-30T12:09:49.558Z,91.90
2019-04-30T12:12:19.970Z,91.30
2019-04-30T12:14:50.523Z,91.10
2019-04-30T12:17:21.027Z,90.70
2019-04-30T12:19:51.404Z,91.40
2019-04-30T12:22:21.914Z,91.40
2019-04-30T12:25:02.231Z,91.30
2019-04-30T12:27:28.711Z,91.40
2019-04-30T12:29:59.974Z,91.10
2019-04-30T12:32:30.411Z,90.10
2019-04-30T12:35:00.763Z,91.20
2019-04-30T12:37:31.230Z,91.30
2019-04-30T12:40:02.001Z,91.30
2019-04-30T12:42:32.534Z,91.20
2019-04-30T12:45:02.943Z,91.20
2019-04-30T12:47:35.130Z,91.30
2019-04-30T12:50:15.993Z,91.10
2019-04-30T12:52:55.355Z,91.80
2019-04-30T12:55:33.477Z,92.60
2019-04-30T12:58:06.979Z,92.60
2019-04-30T13:00:40.421Z,92.30
2019-04-30T13:03:13.937Z,92.50
2019-04-30T13:05:46.322Z,93.00
2019-04-30T13:08:17.757Z,93.40
2019-04-30T13:10:51.690Z,93.40
2019-04-30T13:13:25.140Z,93.20
2019-04-30T13:15:54.702Z,92.70
2019-04-30T13:18:30.687Z,92.60
2019-04-30T13:21:04.297Z,92.30
2019-04-30T13:23:34.810Z,92.50
2019-04-30T13:26:08.921Z,93.40
2019-04-30T13:28:54.534Z,93.70
2019-04-30T13:31:30.488Z,94.60
2019-04-30T13:34:03.954Z,94.90
2019-04-30T13:36:34.327Z,94.80
2019-04-30T13:39:10.734Z,94.80
2019-04-30T13:41:46.847Z,94.20
2019-04-30T13:44:19.559Z,94.00
2019-04-30T13:46:50.132Z,94.40
2019-04-30T13:49:20.604Z,95.10
2019-04-30T13:51:51.085Z,95.10
2019-04-30T13:54:21.621Z,95.20
2019-04-30T13:56:52.167Z,95.60
2019-04-30T13:59:25.580Z,95.60
2019-04-30T14:01:56.267Z,95.80
2019-04-30T14:04:31.410Z,95.80
2019-04-30T14:07:06.442Z,96.50
2019-04-30T14:09:40.515Z,97.00
2019-04-30T14:12:11.088Z,97.30
2019-04-30T14:14:41.386Z,97.70
2019-04-30T14:17:11.847Z,97.50
2019-04-30T14:19:44.682Z,97.90
2019-04-30T14:22:15.287Z,98.20
2019-04-30T14:24:45.836Z,98.20
2019-04-30T14:27:16.435Z,98.00
2019-04-30T14:29:46.901Z,98.20
2019-04-30T14:32:20.268Z,98.20
2019-04-30T14:34:50.841Z,98.30
2019-04-30T14:37:21.210Z,97.80
2019-04-30T14:39:52.211Z,98.40
2019-04-30T14:42:23.761Z,99.00
2019-04-30T14:45:07.827Z,99.20
2019-04-30T14:47:52.328Z,99.60
2019-04-30T14:50:31.891Z,99.80
2019-04-30T14:53:06.734Z,99.90
2019-04-30T14:55:39.326Z,99.90
2019-04-30T14:58:20.532Z,99.70
2019-04-30T15:01:01.621Z,99.80
2019-04-30T15:03:35.500Z,99.90
2019-04-30T15:06:05.961Z,99.90
2019-04-30T15:08:40.266Z,99.90
2019-04-30T15:11:10.126Z,99.90
2019-04-30T15:13:40.540Z,99.90
2019-04-30T15:16:12.055Z,99.90
2019-04-30T15:18:43.869Z,99.90
2019-04-30T15:21:18.719Z,99.90
2019-04-30T15:24:09.233Z,99.90
2019-04-30T15:26:41.398Z,99.90
2019-04-30T15:29:16.227Z,99.90
2019-04-30T15:31:47.363Z,99.90
2019-04-30T15:34:19.232Z,99.90
2019-04-30T15:36:50.227Z,99.90
2019-04-30T15:39:22.452Z,99.90
2019-04-30T15:41:52.926Z,99.90
2019-04-30T15:44:23.274Z,99.90
2019-04-30T15:46:53.872Z,99.90
2019-04-30T15:49:24.530Z,99.90
2019-04-30T15:51:56.630Z,99.90
2019-04-30T15:54:27.043Z,99.90
2019-04-30T15:57:00.258Z,99.90
2019-04-30T15:59:37.297Z,99.90
2019-04-30T16:02:15.615Z,99.90
2019-04-30T16:04:59.975Z,99.90
2019-04-30T16:07:32.957Z,99.90
2019-04-30T16:10:12.914Z,99.90
2019-04-30T16:12:48.683Z,99.90
2019-04-30T16:15:19.353Z,99.90
2019-04-30T16:17:55.558Z,99.90
2019-04-30T16:20:25.925Z,99.90
2019-04-30T16:23:00.696Z,99.90
2019-04-30T16:25:33.744Z,99.90
2019-04-30T16:28:04.208Z,99.90
2019-04-30T16:30:34.619Z,99.90
2019-04-30T16:33:05.042Z,99.90
2019-04-30T16:35:35.473Z,99.90
2019-04-30T16:38:09.212Z,99.90
2019-04-30T16:40:41.524Z,99.90
2019-04-30T16:43:14.494Z,99.90
2019-04-30T16:45:45.094Z,99.90
2019-04-30T16:48:19.553Z,99.90
2019-04-30T16:50:51.182Z,99.90
2019-04-30T16:53:24.877Z,99.90
2019-04-30T16:55:58.641Z,99.90
2019-04-30T16:58:30.974Z,99.90
2019-04-30T17:01:02.838Z,99.90
2019-04-30T17:03:34.781Z,99.90
2019-04-30T17:06:12.445Z,99.90
2019-04-30T17:08:49.331Z,99.90
2019-04-30T17:11:20.765Z,99.90
2019-04-30T17:13:55.384Z,99.90
2019-04-30T17:16:25.886Z,99.90
2019-04-30T17:18:56.207Z,99.90
2019-04-30T17:21:26.632Z,99.90
2019-04-30T17:23:58.708Z,99.90
2019-04-30T17:26:29.329Z,99.90
2019-04-30T17:28:59.948Z,99.90
2019-04-30T17:31:30.391Z,99.90
2019-04-30T17:34:00.793Z,99.90
2019-04-30T17:36:31.190Z,99.90
2019-04-30T17:39:03.128Z,99.90
2019-04-30T17:41:33.626Z,99.90
2019-04-30T17:44:04.083Z,99.90
2019-04-30T17:46:34.510Z,99.90
2019-04-30T17:49:04.881Z,99.90
2019-04-30T17:51:35.241Z,99.90
2019-04-30T17:54:13.507Z,99.90
2019-04-30T17:56:45.102Z,99.90
2019-04-30T17:59:15.421Z,99.90
2019-04-30T18:01:49.490Z,99.90
2019-04-30T18:04:22.037Z,99.90
2019-04-30T18:06:51.457Z,99.90
2019-04-30T18:09:21.804Z,99.90
2019-04-30T18:11:52.513Z,99.90
2019-04-30T18:14:23.066Z,99.90
2019-04-30T18:16:53.490Z,99.90
2019-04-30T18:19:28.673Z,99.90
2019-04-30T18:22:00.827Z,99.90
2019-04-30T18:24:42.597Z,99.90
2019-04-30T18:27:14.635Z,99.90
2019-04-30T18:29:45.003Z,99.90
2019-04-30T18:32:19.319Z,99.90
2019-04-30T18:34:50.108Z,99.90
2019-04-30T18:37:20.582Z,99.90
2019-04-30T18:39:52.755Z,99.90
2019-04-30T18:42:23.265Z,99.90
2019-04-30T18:44:55.170Z,99.90
2019-04-30T18:47:26.038Z,99.90
2019-04-30T18:49:56.340Z,99.90
2019-04-30T18:52:26.650Z,99.90
2019-04-30T18:54:57.015Z,99.90
2019-04-30T18:57:27.438Z,99.90
2019-04-30T18:59:59.163Z,99.90
2019-04-30T19:02:29.828Z,99.90
2019-04-30T19:05:00.120Z,99.90
2019-04-30T19:07:37.978Z,99.90
2019-04-30T19:10:10.102Z,99.90
2019-04-30T19:12:42.415Z,99.90
2019-04-30T19:15:59.163Z,99.90
2019-04-30T19:18:04.484Z,99.90
2019-04-30T19:20:49.595Z,99.90
2019-04-30T19:23:20.207Z,99.90
2019-04-30T19:25:50.629Z,99.90
2019-04-30T19:28:23.790Z,99.90
2019-04-30T19:30:57.946Z,99.90
2019-04-30T19:33:26.294Z,99.90
2019-04-30T19:35:58.495Z,99.90
2019-04-30T19:38:28.676Z,99.90
2019-04-30T19:41:00.646Z,99.90
2019-04-30T19:43:30.960Z,99.90
2019-04-30T19:46:01.393Z,99.90
2019-04-30T19:48:31.674Z,99.90
2019-04-30T19:51:02.127Z,99.90
2019-04-30T19:53:34.385Z,99.90
2019-04-30T19:56:04.812Z,99.90
2019-04-30T19:58:48.767Z,99.90
2019-04-30T20:01:07.105Z,99.90
2019-04-30T20:03:37.495Z,99.90
2019-04-30T20:06:09.019Z,99.90
2019-04-30T20:08:39.690Z,99.90
2019-04-30T20:11:10.099Z,99.90
2019-04-30T20:13:40.625Z,99.90
2019-04-30T20:16:11.157Z,99.90
2019-04-30T20:18:41.543Z,99.90
2019-04-30T20:21:13.484Z,99.90
2019-04-30T20:23:43.922Z,99.90
2019-04-30T20:26:16.886Z,99.90
2019-04-30T20:28:49.166Z,99.90
2019-04-30T20:31:21.151Z,99.90
2019-04-30T20:33:53.660Z,99.90
2019-04-30T20:36:23.644Z,99.90
2019-04-30T20:38:55.745Z,99.90
2019-04-30T20:41:28.562Z,99.90
2019-04-30T20:44:00.259Z,99.90
2019-04-30T20:46:35.036Z,99.90
2019-04-30T20:49:05.283Z,99.90
2019-04-30T20:51:35.571Z,99.90
2019-04-30T20:54:05.926Z,99.90
2019-04-30T20:56:36.483Z,99.90
2019-04-30T20:59:10.471Z,99.90
2019-04-30T21:01:39.306Z,99.90
2019-04-30T21:04:10.039Z,99.90
2019-04-30T21:06:40.520Z,99.90
2019-04-30T21:09:11.165Z,99.90
2019-04-30T21:11:41.595Z,99.90
2019-04-30T21:14:12.074Z,99.90
2019-04-30T21:16:42.410Z,99.90
2019-04-30T21:19:12.833Z,99.90
2019-04-30T21:21:43.150Z,99.90
2019-04-30T21:24:13.637Z,99.90
2019-04-30T21:26:44.056Z,99.90
2019-04-30T21:29:15.990Z,99.90
2019-04-30T21:31:54.397Z,99.90
2019-04-30T21:34:35.303Z,99.90
2019-04-30T21:37:05.639Z,99.90
2019-04-30T21:39:36.102Z,99.90
2019-04-30T21:42:06.494Z,99.90
2019-04-30T21:44:36.911Z,99.90
2019-04-30T21:47:07.518Z,99.90
2019-04-30T21:49:37.855Z,99.90
2019-04-30T21:52:08.284Z,99.90
2019-04-30T21:54:38.855Z,99.90
2019-04-30T21:57:09.319Z,99.90
2019-04-30T21:59:39.765Z,99.90
2019-04-30T22:02:10.295Z,99.90
2019-04-30T22:04:40.726Z,99.90
2019-04-30T22:07:11.039Z,99.90
2019-04-30T22:09:42.999Z,99.90
2019-04-30T22:12:13.428Z,99.90
2019-04-30T22:14:43.800Z,99.90
2019-04-30T22:17:14.290Z,99.90
2019-04-30T22:19:44.586Z,99.90
2019-04-30T22:22:15.004Z,99.90
2019-04-30T22:24:45.525Z,99.90
2019-04-30T22:27:17.454Z,99.90
2019-04-30T22:29:47.859Z,99.90
2019-04-30T22:32:18.530Z,99.90
2019-04-30T22:34:49.005Z,99.90
2019-04-30T22:37:19.694Z,99.90
2019-04-30T22:39:59.264Z,99.90
2019-04-30T22:42:32.965Z,99.90
2019-04-30T22:45:07.103Z,99.90
2019-04-30T22:47:37.568Z,99.90
2019-04-30T22:50:08.539Z,99.90
2019-04-30T22:52:38.894Z,99.90
2019-04-30T22:55:09.200Z,99.90
2019-04-30T22:57:39.641Z,99.90
2019-04-30T23:00:12.599Z,99.90
2019-04-30T23:02:44.712Z,99.90
2019-04-30T23:05:16.609Z,99.90
2019-04-30T23:07:47.058Z,99.90
2019-04-30T23:10:18.154Z,99.90
2019-04-30T23:12:48.588Z,99.90
2019-04-30T23:15:20.104Z,99.90
2019-04-30T23:17:50.635Z,99.90
2019-04-30T23:20:20.959Z,99.90
2019-04-30T23:22:51.381Z,99.90
2019-04-30T23:25:21.741Z,99.90
2019-04-30T23:27:52.086Z,99.90
2019-04-30T23:30:22.531Z,99.90
2019-04-30T23:32:52.890Z,99.90
2019-04-30T23:35:23.266Z,99.90
2019-04-30T23:37:53.670Z,99.90
2019-04-30T23:40:29.488Z,99.90
2019-04-30T23:43:00.013Z,99.90
2019-04-30T23:45:30.370Z,99.90
2019-04-30T23:48:00.718Z,99.90
2019-04-30T23:50:31.090Z,99.90
2019-04-30T23:53:01.460Z,99.90
2019-04-30T23:55:31.777Z,99.90
2019-04-30T23:58:02.180Z,99.90
